sensor_id;sensor_type;location;lat;lon;timestamp;P1;durP1;ratioP1;P2;durP2;ratioP2
69706;SDS011;56975;55.726;37.566;2024-02-21T00:00:00;13.2;;;7.7;;
69706;SDS011;56975;55.726;37.566;2024-02-21T00:10:00;20.8;;;11.7;;
69706;SDS011;56975;55.726;37.566;2024-02-21T00:15:00;17.8;;;10.2;;
69706;SDS011;56975;55.726;37.566;2024-02-21T00:25:00;19.8;;;10.9;;
69706;SDS011;56975;55.726;37.566;2024-02-21T00:30:00;21.9;;;12.9;;
69706;SDS011;56975;55.726;37.566;2024-02-21T00:40:00;22.0;;;10.7;;
69706;SDS011;56975;55.726;37.566;2024-02-21T00:45:00;23.5;;;12.5;;
69706;SDS011;56975;55.726;37.566;2024-02-21T00:55:00;20.0;;;12.3;;
69706;SDS011;56975;55.726;37.566;2024-02-21T01:00:00;19.5;;;9.5;;
69706;SDS011;56975;55.726;37.566;2024-02-21T01:10:00;21.8;;;12.2;;
69706;SDS011;56975;55.726;37.566;2024-02-21T01:15:04;22.7;;;11.8;;
69706;SDS011;56975;55.726;37.566;2024-02-21T01:25:00;17.3;;;9.8;;
69706;SDS011;56975;55.726;37.566;2024-02-21T01:30:00;18.9;;;11.7;;
69706;SDS011;56975;55.726;37.566;2024-02-21T01:40:00;12.2;;;7.6;;
69706;SDS011;56975;55.726;37.566;2024-02-21T01:45:00;19.5;;;10.2;;
69706;SDS011;56975;55.726;37.566;2024-02-21T01:55:00;15.9;;;9.1;;
69706;SDS011;56975;55.726;37.566;2024-02-21T02:00:00;14.3;;;8.9;;
69706;SDS011;56975;55.726;37.566;2024-02-21T02:10:00;13.4;;;7.1;;
69706;SDS011;56975;55.726;37.566;2024-02-21T02:15:00;12.2;;;7.5;;
69706;SDS011;56975;55.726;37.566;2024-02-21T02:25:00;13.5;;;7.3;;
69706;SDS011;56975;55.726;37.566;2024-02-21T02:30:00;16.1;;;8.5;;
69706;SDS011;56975;55.726;37.566;2024-02-21T02:40:00;19.4;;;10.0;;
69706;SDS011;56975;55.726;37.566;2024-02-21T02:45:00;10.6;;;6.4;;
69706;SDS011;56975;55.726;37.566;2024-02-21T02:55:00;19.4;;;9.1;;
69706;SDS011;56975;55.726;37.566;2024-02-21T03:00:00;14.2;;;7.8;;
69706;SDS011;56975;55.726;37.566;2024-02-21T03:10:00;15.0;;;8.9;;
69706;SDS011;56975;55.726;37.566;2024-02-21T03:15:00;14.7;;;8.6;;
69706;SDS011;56975;55.726;37.566;2024-02-21T03:25:00;14.5;;;7.4;;
69706;SDS011;56975;55.726;37.566;2024-02-21T03:30:00;17.1;;;8.4;;
69706;SDS011;56975;55.726;37.566;2024-02-21T03:40:00;12.7;;;7.6;;
69706;SDS011;56975;55.726;37.566;2024-02-21T03:45:00;19.6;;;10.2;;
69706;SDS011;56975;55.726;37.566;2024-02-21T03:55:02;11.5;;;7.5;;
69706;SDS011;56975;55.726;37.566;2024-02-21T04:00:00;17.9;;;10.9;;
69706;SDS011;56975;55.726;37.566;2024-02-21T04:30:00;16.2;;;9.6;;
69706;SDS011;56975;55.726;37.566;2024-02-21T04:35:00;12.8;;;7.1;;
69706;SDS011;56975;55.726;37.566;2024-02-21T04:45:00;20.5;;;9.7;;
69706;SDS011;56975;55.726;37.566;2024-02-21T04:50:00;16.4;;;8.6;;
69706;SDS011;56975;55.726;37.566;2024-02-21T05:00:00;22.3;;;10.6;;
69706;SDS011;56975;55.726;37.566;2024-02-21T05:05:00;17.5;;;9.8;;
69706;SDS011;56975;55.726;37.566;2024-02-21T05:15:00;13.8;;;8.7;;
69706;SDS011;56975;55.726;37.566;2024-02-21T05:20:00;21.3;;;10.2;;
69706;SDS011;56975;55.726;37.566;2024-02-21T05:30:00;14.8;;;9.0;;
69706;SDS011;56975;55.726;37.566;2024-02-21T05:35:00;25.6;;;11.8;;
69706;SDS011;56975;55.726;37.566;2024-02-21T05:45:00;12.6;;;8.3;;
69706;SDS011;56975;55.726;37.566;2024-02-21T05:50:00;14.9;;;8.6;;
69706;SDS011;56975;55.726;37.566;2024-02-21T06:00:00;14.8;;;9.0;;
69706;SDS011;56975;55.726;37.566;2024-02-21T06:20:00;13.6;;;7.4;;
69706;SDS011;56975;55.726;37.566;2024-02-21T06:30:00;21.7;;;12.0;;
69706;SDS011;56975;55.726;37.566;2024-02-21T06:35:00;12.3;;;8.2;;
69706;SDS011;56975;55.726;37.566;2024-02-21T06:45:00;15.2;;;9.7;;
69706;SDS011;56975;55.726;37.566;2024-02-21T06:50:00;17.3;;;10.5;;
69706;SDS011;56975;55.726;37.566;2024-02-21T07:00:00;18.5;;;10.2;;
69706;SDS011;56975;55.726;37.566;2024-02-21T07:05:00;10.8;;;7.0;;
69706;SDS011;56975;55.726;37.566;2024-02-21T07:15:00;13.6;;;7.8;;
69706;SDS011;56975;55.726;37.566;2024-02-21T07:20:00;17.7;;;8.1;;
69706;SDS011;56975;55.726;37.566;2024-02-21T07:30:00;13.8;;;8.8;;
69706;SDS011;56975;55.726;37.566;2024-02-21T07:35:00;16.1;;;8.8;;
69706;SDS011;56975;55.726;37.566;2024-02-21T07:45:00;15.3;;;8.3;;
69706;SDS011;56975;55.726;37.566;2024-02-21T07:50:00;15.1;;;7.7;;
69706;SDS011;56975;55.726;37.566;2024-02-21T08:00:00;21.5;;;11.9;;
69706;SDS011;56975;55.726;37.566;2024-02-21T08:05:00;18.7;;;11.0;;
69706;SDS011;56975;55.726;37.566;2024-02-21T08:15:00;14.3;;;8.1;;
69706;SDS011;56975;55.726;37.566;2024-02-21T08:30:00;19.7;;;10.1;;
69706;SDS011;56975;55.726;37.566;2024-02-21T08:35:00;23.4;;;10.2;;
69706;SDS011;56975;55.726;37.566;2024-02-21T08:50:00;17.6;;;10.1;;
69706;SDS011;56975;55.726;37.566;2024-02-21T09:00:00;19.9;;;10.1;;
69706;SDS011;56975;55.726;37.566;2024-02-21T09:05:00;19.6;;;10.9;;
69706;SDS011;56975;55.726;37.566;2024-02-21T09:15:00;21.7;;;11.3;;
69706;SDS011;56975;55.726;37.566;2024-02-21T09:20:00;21.5;;;9.5;;
69706;SDS011;56975;55.726;37.566;2024-02-21T09:30:00;21.2;;;11.3;;
69706;SDS011;56975;55.726;37.566;2024-02-21T09:35:00;18.4;;;9.7;;
69706;SDS011;56975;55.726;37.566;2024-02-21T09:45:01;18.6;;;9.5;;
69706;SDS011;56975;55.726;37.566;2024-02-21T10:00:00;17.9;;;9.4;;
69706;SDS011;56975;55.726;37.566;2024-02-21T10:05:00;19.3;;;9.1;;
69706;SDS011;56975;55.726;37.566;2024-02-21T10:15:00;15.4;;;9.0;;
69706;SDS011;56975;55.726;37.566;2024-02-21T10:20:06;21.3;;;10.7;;
69706;SDS011;56975;55.726;37.566;2024-02-21T10:30:00;21.6;;;11.7;;
69706;SDS011;56975;55.726;37.566;2024-02-21T10:35:00;16.5;;;8.5;;
69706;SDS011;56975;55.726;37.566;2024-02-21T10:45:00;14.6;;;7.7;;
69706;SDS011;56975;55.726;37.566;2024-02-21T10:50:02;22.6;;;10.1;;
69706;SDS011;56975;55.726;37.566;2024-02-21T11:05:00;13.7;;;7.6;;
69706;SDS011;56975;55.726;37.566;2024-02-21T11:15:03;11.2;;;6.5;;
69706;SDS011;56975;55.726;37.566;2024-02-21T11:20:10;12.5;;;6.8;;
69706;SDS011;56975;55.726;37.566;2024-02-21T11:30:00;14.2;;;7.1;;
69706;SDS011;56975;55.726;37.566;2024-02-21T11:35:00;11.8;;;6.2;;
69706;SDS011;56975;55.726;37.566;2024-02-21T11:45:00;11.5;;;7.4;;
69706;SDS011;56975;55.726;37.566;2024-02-21T11:50:00;13.4;;;7.1;;
69706;SDS011;56975;55.726;37.566;2024-02-21T12:00:09;17.0;;;8.3;;
69706;SDS011;56975;55.726;37.566;2024-02-21T12:05:00;18.7;;;9.1;;
69706;SDS011;56975;55.726;37.566;2024-02-21T12:15:00;19.3;;;9.7;;
69706;SDS011;56975;55.726;37.566;2024-02-21T12:20:00;12.8;;;7.2;;
69706;SDS011;56975;55.726;37.566;2024-02-21T12:30:00;12.6;;;7.0;;
69706;SDS011;56975;55.726;37.566;2024-02-21T12:35:00;16.8;;;8.2;;
69706;SDS011;56975;55.726;37.566;2024-02-21T12:45:00;17.5;;;8.6;;
69706;SDS011;56975;55.726;37.566;2024-02-21T12:50:00;13.3;;;7.2;;
69706;SDS011;56975;55.726;37.566;2024-02-21T13:00:00;17.7;;;9.6;;
69706;SDS011;56975;55.726;37.566;2024-02-21T13:05:00;17.1;;;9.1;;
69706;SDS011;56975;55.726;37.566;2024-02-21T13:15:00;13.3;;;7.4;;
69706;SDS011;56975;55.726;37.566;2024-02-21T13:20:00;12.2;;;6.3;;
69706;SDS011;56975;55.726;37.566;2024-02-21T13:30:00;10.2;;;5.6;;
69706;SDS011;56975;55.726;37.566;2024-02-21T13:35:00;17.3;;;8.5;;
69706;SDS011;56975;55.726;37.566;2024-02-21T13:45:00;13.4;;;7.2;;
69706;SDS011;56975;55.726;37.566;2024-02-21T13:50:00;16.5;;;8.9;;
69706;SDS011;56975;55.726;37.566;2024-02-21T14:00:00;16.2;;;8.2;;
69706;SDS011;56975;55.726;37.566;2024-02-21T14:05:00;14.2;;;7.8;;
69706;SDS011;56975;55.726;37.566;2024-02-21T14:15:00;17.8;;;8.6;;
69706;SDS011;56975;55.726;37.566;2024-02-21T14:20:00;14.3;;;7.8;;
69706;SDS011;56975;55.726;37.566;2024-02-21T14:30:00;13.7;;;7.9;;
69706;SDS011;56975;55.726;37.566;2024-02-21T14:35:00;18.3;;;9.9;;
69706;SDS011;56975;55.726;37.566;2024-02-21T14:45:00;17.7;;;8.6;;
69706;SDS011;56975;55.726;37.566;2024-02-21T14:50:02;11.6;;;6.0;;
69706;SDS011;56975;55.726;37.566;2024-02-21T15:00:00;11.7;;;6.9;;
69706;SDS011;56975;55.726;37.566;2024-02-21T15:05:00;14.3;;;7.8;;
69706;SDS011;56975;55.726;37.566;2024-02-21T15:15:00;21.1;;;10.6;;
69706;SDS011;56975;55.726;37.566;2024-02-21T15:20:00;14.7;;;8.0;;
69706;SDS011;56975;55.726;37.566;2024-02-21T15:30:01;22.1;;;9.9;;
69706;SDS011;56975;55.726;37.566;2024-02-21T15:35:00;19.5;;;10.3;;
69706;SDS011;56975;55.726;37.566;2024-02-21T15:45:00;15.5;;;9.2;;
69706;SDS011;56975;55.726;37.566;2024-02-21T15:50:00;20.3;;;8.3;;
69706;SDS011;56975;55.726;37.566;2024-02-21T16:00:00;18.2;;;9.9;;
69706;SDS011;56975;55.726;37.566;2024-02-21T16:05:00;18.6;;;10.1;;
69706;SDS011;56975;55.726;37.566;2024-02-21T16:15:00;23.4;;;9.6;;
69706;SDS011;56975;55.726;37.566;2024-02-21T16:20:00;13.8;;;8.3;;
69706;SDS011;56975;55.726;37.566;2024-02-21T16:30:00;15.5;;;8.4;;
69706;SDS011;56975;55.726;37.566;2024-02-21T16:35:00;23.2;;;11.5;;
69706;SDS011;56975;55.726;37.566;2024-02-21T16:45:00;20.4;;;11.2;;
69706;SDS011;56975;55.726;37.566;2024-02-21T16:50:00;19.9;;;10.5;;
69706;SDS011;56975;55.726;37.566;2024-02-21T17:00:00;23.3;;;11.8;;
69706;SDS011;56975;55.726;37.566;2024-02-21T17:05:00;20.7;;;10.7;;
69706;SDS011;56975;55.726;37.566;2024-02-21T17:15:00;19.2;;;8.9;;
69706;SDS011;56975;55.726;37.566;2024-02-21T17:20:00;20.6;;;9.9;;
69706;SDS011;56975;55.726;37.566;2024-02-21T17:30:00;23.7;;;11.6;;
69706;SDS011;56975;55.726;37.566;2024-02-21T17:35:00;23.1;;;10.1;;
69706;SDS011;56975;55.726;37.566;2024-02-21T17:45:00;17.1;;;9.6;;
69706;SDS011;56975;55.726;37.566;2024-02-21T17:50:00;21.6;;;10.3;;
69706;SDS011;56975;55.726;37.566;2024-02-21T18:00:00;19.6;;;10.5;;
69706;SDS011;56975;55.726;37.566;2024-02-21T18:15:00;26.5;;;12.1;;
69706;SDS011;56975;55.726;37.566;2024-02-21T18:20:00;27.1;;;13.0;;
69706;SDS011;56975;55.726;37.566;2024-02-21T18:35:00;26.6;;;12.2;;
69706;SDS011;56975;55.726;37.566;2024-02-21T18:40:00;29.8;;;12.3;;
69706;SDS011;56975;55.726;37.566;2024-02-21T18:50:00;32.8;;;14.7;;
69706;SDS011;56975;55.726;37.566;2024-02-21T18:55:00;24.8;;;10.6;;
69706;SDS011;56975;55.726;37.566;2024-02-21T19:10:00;27.9;;;13.8;;
69706;SDS011;56975;55.726;37.566;2024-02-21T19:25:00;29.1;;;14.0;;
69706;SDS011;56975;55.726;37.566;2024-02-21T19:30:00;24.0;;;11.4;;
69706;SDS011;56975;55.726;37.566;2024-02-21T19:40:00;32.3;;;16.2;;
69706;SDS011;56975;55.726;37.566;2024-02-21T19:45:00;27.7;;;13.6;;
69706;SDS011;56975;55.726;37.566;2024-02-21T19:55:00;31.0;;;13.9;;
69706;SDS011;56975;55.726;37.566;2024-02-21T20:00:00;38.5;;;12.6;;
69706;SDS011;56975;55.726;37.566;2024-02-21T20:10:00;25.3;;;12.0;;
69706;SDS011;56975;55.726;37.566;2024-02-21T20:15:00;26.5;;;11.6;;
69706;SDS011;56975;55.726;37.566;2024-02-21T20:25:00;21.7;;;11.9;;
69706;SDS011;56975;55.726;37.566;2024-02-21T20:30:00;33.4;;;13.6;;
69706;SDS011;56975;55.726;37.566;2024-02-21T20:40:00;35.9;;;13.9;;
69706;SDS011;56975;55.726;37.566;2024-02-21T20:45:00;24.9;;;11.6;;
69706;SDS011;56975;55.726;37.566;2024-02-21T20:55:00;26.3;;;13.4;;
69706;SDS011;56975;55.726;37.566;2024-02-21T21:00:00;23.9;;;11.6;;
69706;SDS011;56975;55.726;37.566;2024-02-21T21:10:00;25.4;;;11.9;;
69706;SDS011;56975;55.726;37.566;2024-02-21T21:15:00;25.9;;;14.0;;
69706;SDS011;56975;55.726;37.566;2024-02-21T21:25:00;31.7;;;15.4;;
69706;SDS011;56975;55.726;37.566;2024-02-21T21:30:00;32.3;;;16.0;;
69706;SDS011;56975;55.726;37.566;2024-02-21T21:40:00;26.0;;;13.0;;
69706;SDS011;56975;55.726;37.566;2024-02-21T21:45:00;27.1;;;13.4;;
69706;SDS011;56975;55.726;37.566;2024-02-21T21:55:00;38.8;;;17.6;;
69706;SDS011;56975;55.726;37.566;2024-02-21T22:00:00;31.3;;;13.9;;
69706;SDS011;56975;55.726;37.566;2024-02-21T22:10:00;30.0;;;13.9;;
69706;SDS011;56975;55.726;37.566;2024-02-21T22:15:00;28.9;;;12.6;;
69706;SDS011;56975;55.726;37.566;2024-02-21T22:25:00;30.8;;;15.6;;
69706;SDS011;56975;55.726;37.566;2024-02-21T22:30:00;34.5;;;16.3;;
69706;SDS011;56975;55.726;37.566;2024-02-21T22:40:00;29.1;;;13.7;;
69706;SDS011;56975;55.726;37.566;2024-02-21T22:45:00;37.5;;;17.8;;
69706;SDS011;56975;55.726;37.566;2024-02-21T22:55:01;21.1;;;11.8;;
69706;SDS011;56975;55.726;37.566;2024-02-21T23:00:00;32.1;;;15.8;;
69706;SDS011;56975;55.726;37.566;2024-02-21T23:10:00;29.0;;;11.9;;
69706;SDS011;56975;55.726;37.566;2024-02-21T23:15:00;27.4;;;13.3;;
69706;SDS011;56975;55.726;37.566;2024-02-21T23:25:00;27.5;;;14.1;;
69706;SDS011;56975;55.726;37.566;2024-02-21T23:30:00;25.2;;;12.5;;
69706;SDS011;56975;55.726;37.566;2024-02-21T23:40:00;41.3;;;18.0;;
69706;SDS011;56975;55.726;37.566;2024-02-21T23:45:00;33.8;;;17.6;;
69706;SDS011;56975;55.726;37.566;2024-02-21T23:55:00;23.9;;;10.8;;
